createdAt,value
2022-11-22T00:00:22.864Z,3.60
2022-11-22T00:02:51.111Z,3.50
2022-11-22T00:07:53.642Z,3.50
2022-11-22T00:10:23.293Z,3.60
2022-11-22T00:12:53.496Z,3.50
2022-11-22T00:15:22.995Z,3.50
2022-11-22T00:17:52.538Z,3.50
2022-11-22T00:20:20.807Z,3.50
2022-11-22T00:22:49.300Z,3.50
2022-11-22T00:25:17.961Z,3.50
2022-11-22T00:27:50.017Z,3.50
2022-11-22T00:30:19.874Z,3.50
2022-11-22T00:32:49.576Z,3.50
2022-11-22T00:35:17.983Z,3.50
2022-11-22T00:37:47.403Z,3.50
2022-11-22T00:40:16.257Z,3.50
2022-11-22T00:45:15.728Z,3.50
2022-11-22T00:47:43.990Z,3.50
2022-11-22T00:50:13.740Z,3.50
2022-11-22T00:52:44.447Z,3.50
2022-11-22T00:55:12.623Z,3.50
2022-11-22T00:57:42.008Z,3.50
2022-11-22T01:02:41.461Z,3.50
2022-11-22T01:05:11.139Z,3.60
2022-11-22T01:07:40.868Z,3.50
2022-11-22T01:10:10.324Z,3.60
2022-11-22T01:12:38.779Z,3.50
2022-11-22T01:15:09.814Z,3.60
2022-11-22T01:17:39.493Z,3.60
2022-11-22T01:20:11.252Z,3.60
2022-11-22T01:25:10.424Z,3.60
2022-11-22T01:27:39.995Z,3.60
2022-11-22T01:32:38.776Z,3.60
2022-11-22T01:35:10.880Z,3.60
2022-11-22T01:37:41.591Z,3.60
2022-11-22T01:42:52.316Z,3.70
2022-11-22T01:45:47.361Z,3.70
2022-11-22T01:50:59.113Z,3.70
2022-11-22T01:53:34.750Z,3.70
2022-11-22T01:58:38.818Z,3.80
2022-11-22T02:01:09.848Z,3.80
2022-11-22T02:03:41.035Z,3.80
2022-11-22T02:06:11.300Z,3.80
2022-11-22T02:08:50.535Z,3.90
2022-11-22T02:11:20.971Z,3.90
2022-11-22T02:13:53.528Z,3.90
2022-11-22T02:16:22.032Z,3.90
2022-11-22T02:18:51.515Z,3.90
2022-11-22T02:21:22.393Z,4.00
2022-11-22T02:26:31.333Z,4.00
2022-11-22T02:31:41.399Z,4.00
2022-11-22T02:34:10.080Z,4.00
2022-11-22T02:39:17.083Z,4.00
2022-11-22T02:41:48.601Z,4.00
2022-11-22T02:44:18.871Z,4.00
2022-11-22T02:46:50.446Z,4.10
2022-11-22T02:49:22.047Z,4.10
2022-11-22T02:51:51.269Z,4.00
2022-11-22T02:54:20.009Z,4.20
2022-11-22T02:56:51.143Z,4.10
2022-11-22T02:59:20.533Z,4.10
2022-11-22T03:01:51.207Z,4.10
2022-11-22T03:09:29.666Z,4.10
2022-11-22T03:12:02.071Z,4.10
2022-11-22T03:14:30.393Z,4.10
2022-11-22T03:17:00.986Z,4.50
2022-11-22T03:19:30.720Z,4.20
2022-11-22T03:22:00.424Z,4.20
2022-11-22T03:24:29.901Z,4.20
2022-11-22T03:29:31.843Z,4.20
2022-11-22T03:32:02.715Z,4.20
2022-11-22T03:36:59.832Z,4.20
2022-11-22T03:39:28.315Z,4.20
2022-11-22T03:41:57.905Z,4.20
2022-11-22T03:44:28.718Z,4.20
2022-11-22T03:46:58.152Z,4.20
2022-11-22T03:49:27.969Z,4.20
2022-11-22T03:54:27.485Z,4.30
2022-11-22T03:56:58.076Z,4.20
2022-11-22T03:59:26.577Z,4.20
2022-11-22T04:01:57.606Z,4.20
2022-11-22T04:06:55.681Z,4.20
2022-11-22T04:09:25.153Z,4.30
2022-11-22T04:14:40.764Z,4.30
2022-11-22T04:17:14.999Z,4.30
2022-11-22T04:20:03.740Z,4.30
2022-11-22T04:22:32.227Z,4.40
2022-11-22T04:37:52.087Z,4.30
2022-11-22T04:40:20.336Z,4.40
2022-11-22T04:43:07.160Z,4.40
2022-11-22T04:48:07.011Z,4.50
2022-11-22T04:50:52.731Z,4.40
2022-11-22T04:53:22.238Z,4.50
2022-11-22T04:55:52.388Z,4.50
2022-11-22T04:58:22.092Z,4.50
2022-11-22T05:00:51.796Z,4.50
2022-11-22T05:03:22.682Z,4.50
2022-11-22T05:05:52.064Z,4.50
2022-11-22T05:08:20.934Z,4.50
2022-11-22T05:10:59.217Z,4.50
2022-11-22T05:13:33.598Z,4.50
2022-11-22T05:16:05.316Z,4.50
2022-11-22T05:18:38.305Z,4.50
2022-11-22T05:23:55.092Z,4.50
2022-11-22T05:26:26.905Z,4.60
2022-11-22T05:28:59.192Z,4.60
2022-11-22T05:31:29.542Z,4.60
2022-11-22T05:33:59.632Z,4.60
2022-11-22T05:36:28.308Z,4.60
2022-11-22T05:38:59.020Z,4.70
2022-11-22T05:41:28.705Z,4.70
2022-11-22T05:43:59.034Z,4.70
2022-11-22T05:46:31.223Z,4.70
2022-11-22T05:49:01.860Z,4.90
2022-11-22T05:51:34.735Z,4.50
2022-11-22T05:54:05.136Z,4.80
2022-11-22T05:56:33.407Z,4.70
2022-11-22T05:59:02.983Z,4.70
2022-11-22T06:01:31.161Z,4.70
2022-11-22T06:04:00.591Z,4.70
2022-11-22T06:09:00.745Z,4.80
2022-11-22T06:11:30.695Z,4.80
2022-11-22T06:14:04.380Z,4.80
2022-11-22T06:16:33.104Z,4.80
2022-11-22T06:19:01.533Z,4.80
2022-11-22T06:21:33.391Z,4.90
2022-11-22T06:24:03.990Z,4.90
2022-11-22T06:26:38.839Z,4.90
2022-11-22T06:31:37.656Z,4.90
2022-11-22T06:34:07.163Z,4.90
2022-11-22T06:36:40.041Z,4.90
2022-11-22T06:39:09.636Z,4.90
2022-11-22T06:41:39.840Z,5.10
2022-11-22T06:44:10.910Z,4.90
2022-11-22T06:46:40.356Z,5.00
2022-11-22T06:49:10.983Z,5.00
2022-11-22T06:51:41.798Z,5.00
2022-11-22T06:54:12.715Z,4.90
2022-11-22T06:56:42.874Z,4.90
2022-11-22T06:59:14.044Z,4.80
2022-11-22T07:04:13.428Z,4.80
2022-11-22T07:06:44.317Z,4.80
2022-11-22T07:11:44.130Z,4.90
2022-11-22T07:16:43.439Z,5.00
2022-11-22T07:19:12.993Z,5.00
2022-11-22T07:21:41.250Z,5.00
2022-11-22T07:24:11.216Z,5.00
2022-11-22T07:26:39.624Z,5.00
2022-11-22T07:29:10.374Z,4.90
2022-11-22T07:31:39.763Z,4.90
2022-11-22T07:34:08.240Z,5.00
2022-11-22T07:36:37.660Z,4.90
2022-11-22T07:39:06.001Z,4.90
2022-11-22T07:41:36.904Z,4.80
2022-11-22T07:46:35.070Z,4.80
2022-11-22T07:49:03.709Z,5.00
2022-11-22T07:51:32.344Z,5.00
2022-11-22T07:54:01.968Z,5.10
2022-11-22T07:56:31.422Z,5.10
2022-11-22T07:59:03.786Z,5.10
2022-11-22T08:06:33.299Z,5.40
2022-11-22T08:09:02.801Z,5.40
2022-11-22T08:14:01.075Z,5.70
2022-11-22T08:18:57.878Z,6.10
2022-11-22T08:21:27.380Z,6.20
2022-11-22T08:24:00.222Z,6.30
2022-11-22T08:29:02.706Z,6.50
2022-11-22T08:31:32.322Z,6.40
2022-11-22T08:34:01.981Z,6.40
2022-11-22T08:36:30.397Z,6.40
2022-11-22T08:38:59.469Z,6.50
2022-11-22T08:46:32.132Z,7.10
2022-11-22T08:49:03.890Z,7.70
2022-11-22T08:51:32.497Z,8.40
2022-11-22T08:59:03.390Z,9.70
2022-11-22T09:12:08.709Z,10.60
2022-11-22T09:17:10.900Z,10.50
2022-11-22T09:19:42.747Z,10.90
2022-11-22T09:22:10.968Z,11.20
2022-11-22T09:24:40.489Z,11.50
2022-11-22T09:32:11.394Z,12.30
2022-11-22T09:39:42.578Z,13.10
2022-11-22T09:43:02.679Z,12.60
2022-11-22T09:46:19.538Z,12.10
2022-11-22T09:51:42.917Z,11.80
2022-11-22T09:54:17.134Z,11.80
2022-11-22T09:56:49.426Z,11.90
2022-11-22T09:59:26.344Z,12.30
2022-11-22T10:02:17.516Z,12.90
2022-11-22T10:04:55.882Z,13.20
2022-11-22T10:07:31.345Z,13.40
2022-11-22T10:10:07.791Z,13.40
2022-11-22T10:12:46.218Z,13.30
2022-11-22T10:18:00.346Z,13.30
2022-11-22T10:20:45.828Z,13.40
2022-11-22T10:25:59.687Z,14.30
2022-11-22T10:28:37.416Z,14.30
2022-11-22T10:31:16.607Z,14.20
2022-11-22T10:34:00.479Z,14.10
2022-11-22T10:36:40.486Z,14.00
2022-11-22T10:39:27.849Z,13.10
2022-11-22T10:42:31.254Z,11.80
2022-11-22T10:45:11.897Z,11.20
2022-11-22T10:47:56.019Z,11.60
2022-11-22T10:53:15.608Z,13.00
2022-11-22T10:55:57.190Z,13.60
2022-11-22T11:03:49.225Z,13.90
2022-11-22T11:06:43.741Z,13.10
2022-11-22T11:17:28.890Z,11.00
2022-11-22T11:20:04.235Z,10.50
2022-11-22T11:28:06.929Z,9.60
2022-11-22T11:30:43.380Z,11.00
2022-11-22T11:33:29.680Z,9.50
2022-11-22T11:36:03.813Z,9.60
2022-11-22T11:38:49.676Z,9.70
2022-11-22T11:49:13.179Z,9.90
2022-11-22T11:51:43.709Z,10.00
2022-11-22T11:54:18.592Z,10.50
2022-11-22T11:56:52.789Z,10.70
2022-11-22T11:59:23.416Z,10.90
2022-11-22T12:02:03.370Z,11.30
2022-11-22T12:04:38.490Z,11.90
2022-11-22T12:07:20.427Z,12.40
2022-11-22T12:15:21.812Z,13.30
2022-11-22T12:23:21.538Z,13.80
2022-11-22T12:25:56.280Z,13.90
2022-11-22T12:31:02.464Z,14.00
2022-11-22T12:33:37.949Z,14.00
2022-11-22T12:38:49.393Z,14.00
2022-11-22T12:46:32.636Z,14.10
2022-11-22T12:49:09.734Z,14.30
2022-11-22T12:54:21.053Z,14.50
2022-11-22T12:56:55.861Z,14.40
2022-11-22T12:59:35.948Z,13.70
2022-11-22T13:02:16.617Z,12.70
2022-11-22T13:04:54.712Z,11.80
2022-11-22T13:07:38.240Z,11.20
2022-11-22T13:10:22.165Z,10.90
2022-11-22T13:15:31.751Z,10.40
2022-11-22T13:23:50.025Z,9.70
2022-11-22T13:26:29.883Z,9.50
2022-11-22T13:34:28.189Z,9.40
2022-11-22T13:37:09.535Z,9.40
2022-11-22T13:47:53.757Z,9.30
2022-11-22T13:53:36.915Z,10.70
2022-11-22T13:57:01.751Z,10.60
2022-11-22T13:59:31.495Z,10.10
2022-11-22T14:02:22.117Z,9.80
2022-11-22T14:04:56.609Z,9.30
2022-11-22T14:07:35.539Z,9.20
2022-11-22T14:10:29.086Z,9.00
2022-11-22T14:13:29.034Z,8.90
2022-11-22T14:16:14.283Z,8.70
2022-11-22T14:24:40.998Z,8.60
2022-11-22T14:30:10.154Z,9.60
2022-11-22T14:38:32.396Z,9.20
2022-11-22T14:41:44.301Z,9.20
2022-11-22T14:54:49.490Z,8.30
2022-11-22T14:57:23.384Z,8.30
2022-11-22T16:08:40.049Z,7.40
2022-11-22T16:11:21.933Z,7.30
2022-11-22T16:13:51.498Z,7.20
2022-11-22T16:16:27.286Z,7.20
2022-11-22T16:19:20.604Z,7.20
2022-11-22T16:21:58.525Z,7.10
2022-11-22T16:24:29.847Z,7.00
2022-11-22T16:29:35.500Z,7.00
2022-11-22T16:32:12.282Z,7.00
2022-11-22T16:34:43.213Z,6.90
2022-11-22T16:37:30.661Z,6.80
2022-11-22T16:40:01.317Z,6.70
2022-11-22T16:45:04.327Z,6.50
2022-11-22T16:47:34.299Z,6.40
2022-11-22T16:52:33.748Z,6.40
2022-11-22T16:55:03.970Z,6.40
2022-11-22T17:00:05.371Z,6.50
2022-11-22T17:02:36.547Z,6.50
2022-11-22T17:05:07.864Z,6.50
2022-11-22T17:07:36.205Z,6.50
2022-11-22T17:10:06.918Z,6.60
2022-11-22T17:15:05.594Z,6.70
2022-11-22T17:22:40.755Z,6.60
2022-11-22T17:27:43.749Z,6.60
2022-11-22T17:30:15.758Z,6.60
2022-11-22T17:32:46.516Z,6.60
2022-11-22T17:40:13.516Z,6.50
2022-11-22T17:42:41.797Z,6.60
2022-11-22T17:45:11.631Z,6.40
2022-11-22T17:47:42.245Z,6.60
2022-11-22T17:50:12.597Z,6.50
2022-11-22T17:55:14.387Z,6.60
2022-11-22T17:57:44.192Z,6.60
2022-11-22T18:00:14.074Z,6.60
2022-11-22T18:05:15.126Z,6.60
2022-11-22T18:07:44.738Z,6.50
2022-11-22T18:10:15.609Z,6.50
2022-11-22T18:12:58.565Z,6.50
2022-11-22T18:15:33.325Z,6.40
2022-11-22T18:18:02.919Z,6.40
2022-11-22T18:23:04.767Z,6.40
2022-11-22T18:25:34.247Z,6.40
2022-11-22T18:28:04.886Z,6.40
2022-11-22T18:30:34.369Z,6.40
2022-11-22T18:35:34.836Z,6.50
2022-11-22T18:38:04.325Z,6.50
2022-11-22T18:43:03.812Z,6.60
2022-11-22T18:45:33.379Z,6.50
2022-11-22T18:48:03.569Z,6.70
2022-11-22T18:53:05.973Z,6.50
2022-11-22T18:55:35.473Z,6.60
2022-11-22T18:58:03.769Z,6.50
2022-11-22T19:03:01.669Z,6.60
2022-11-22T19:08:01.034Z,6.60
2022-11-22T19:10:29.234Z,6.70
2022-11-22T19:12:59.863Z,6.40
2022-11-22T19:15:28.446Z,6.60
2022-11-22T19:25:45.060Z,6.60
2022-11-22T19:33:15.551Z,6.60
2022-11-22T19:35:55.492Z,6.50
2022-11-22T19:38:27.016Z,5.90
2022-11-22T19:40:56.789Z,6.40
2022-11-22T19:43:25.342Z,6.50
2022-11-22T19:48:29.013Z,6.50
2022-11-22T19:50:57.544Z,6.50
2022-11-22T19:53:29.548Z,6.50
2022-11-22T19:58:36.098Z,6.30
2022-11-22T20:03:38.097Z,6.10
2022-11-22T20:06:10.569Z,6.10
2022-11-22T20:13:44.613Z,6.20
2022-11-22T20:16:16.722Z,6.20
2022-11-22T20:18:46.128Z,6.20
2022-11-22T20:21:16.493Z,6.30
2022-11-22T20:23:51.477Z,6.30
2022-11-22T20:26:22.485Z,6.20
2022-11-22T20:28:57.314Z,6.30
2022-11-22T20:31:29.825Z,6.30
2022-11-22T20:34:01.247Z,6.40
2022-11-22T20:36:33.525Z,6.40
2022-11-22T20:44:13.938Z,6.30
2022-11-22T20:46:45.691Z,6.40
2022-11-22T20:49:15.502Z,6.40
2022-11-22T20:54:14.119Z,6.40
2022-11-22T20:59:13.348Z,6.40
2022-11-22T21:01:43.661Z,6.40
2022-11-22T21:06:49.107Z,6.50
2022-11-22T21:09:21.166Z,6.50
2022-11-22T21:11:49.445Z,6.50
2022-11-22T21:16:51.412Z,6.70
2022-11-22T21:19:19.674Z,6.60
2022-11-22T21:26:52.484Z,6.60
2022-11-22T21:29:20.718Z,6.50
2022-11-22T21:31:50.173Z,6.60
2022-11-22T21:34:19.583Z,6.50
2022-11-22T21:36:50.182Z,6.60
2022-11-22T21:41:49.529Z,6.50
2022-11-22T21:46:49.185Z,6.50
2022-11-22T21:49:17.465Z,6.50
2022-11-22T21:51:45.872Z,6.60
2022-11-22T21:54:14.094Z,6.60
2022-11-22T21:56:46.186Z,6.50
2022-11-22T22:01:44.433Z,6.50
2022-11-22T22:09:15.894Z,6.30
2022-11-22T22:11:48.950Z,6.30
2022-11-22T22:14:17.228Z,6.30
2022-11-22T22:16:46.585Z,6.30
2022-11-22T22:19:16.260Z,6.20
2022-11-22T22:24:15.741Z,6.10
2022-11-22T22:26:45.417Z,6.00
2022-11-22T22:29:14.871Z,6.00
2022-11-22T22:31:44.576Z,5.90
2022-11-22T22:34:16.264Z,5.80
2022-11-22T22:36:46.426Z,5.80
2022-11-22T22:39:14.646Z,5.70
2022-11-22T22:41:42.802Z,5.60
2022-11-22T22:44:13.621Z,5.40
2022-11-22T22:46:43.073Z,5.30
2022-11-22T22:49:12.491Z,5.20
2022-11-22T22:51:41.871Z,5.10
2022-11-22T22:56:43.477Z,5.00
2022-11-22T23:01:45.241Z,5.00
2022-11-22T23:04:14.699Z,5.00
2022-11-22T23:06:43.008Z,5.10
2022-11-22T23:12:02.635Z,5.30
2022-11-22T23:14:33.771Z,5.50
2022-11-22T23:17:04.658Z,5.60
2022-11-22T23:19:33.087Z,5.70
2022-11-22T23:22:01.475Z,5.80
2022-11-22T23:27:00.501Z,5.90
2022-11-22T23:29:30.268Z,5.90
2022-11-22T23:32:01.706Z,6.00
2022-11-22T23:34:30.793Z,6.00
2022-11-22T23:37:00.348Z,6.10
2022-11-22T23:39:30.004Z,6.10
2022-11-22T23:41:58.612Z,6.10
2022-11-22T23:44:26.807Z,6.20
2022-11-22T23:49:27.435Z,6.30
2022-11-22T23:54:24.174Z,6.30
2022-11-22T23:56:52.367Z,6.30
2022-11-22T23:59:22.851Z,6.30
